Agar, South Dakota
Current Conditions -  °F | °C
As of 1:53 AM on Thursday 29 Jan 2015 (Local Time) from KPIR Reporting Station
Overcast Overcast  
Wind Chill: 25°   Ceiling: 2800
Heat Index: 36°   Visibility: 10mi
Dew Point: 27°   Wind: 21mph
Humidity: 70%   Direction: 320°NW
Pressure: 30.27"   Gusts: 30mph
Location:  44.84°N, 100.07°W
Report Text: KPIR 290753Z AUTO 32018G26KT 10SM OVC028 02/M03 A3027 RMK AO2 PK WND 32035/0724 SLP258 T00221028
Loading
Personal Weather Stations






























Interactive Weather Map New forecast layout! Learn more

10-Day Weather Forecast

Advertisements
Track Severe Weather on mobile